Time;durP1;ratioP1;P1;durP2;ratioP2;P2;SDS_P1;SDS_P2;PMS_P1;PMS_P2;Temp;Humidity;BMP_temperature;BMP_pressure;BME280_temperature;BME280_humidity;BME280_pressure;Samples;Min_cycle;Max_cycle;Signal;HPM_P1;HPM_P2
2021/03/26 00:02:25;;;;;;;16.77;8.50;;;;;;;;;;6264094;28;20535;-75
2021/03/26 00:05:27;;;;;;;15.73;8.20;;;;;;;;;;6261683;28;20120;-75
2021/03/26 00:08:28;;;;;;;13.57;8.02;;;;;;;;;;6257001;28;20060;-76
2021/03/26 00:11:31;;;;;;;13.50;7.35;;;;;;;;;;6268632;28;20183;-74
2021/03/26 00:14:32;;;;;;;16.60;8.25;;;;;;;;;;6263309;28;20615;-74
2021/03/26 00:17:33;;;;;;;13.93;8.30;;;;;;;;;;6258686;28;20475;-75
2021/03/26 00:20:34;;;;;;;11.32;7.53;;;;;;;;;;6255112;28;20558;-77
2021/03/26 00:23:36;;;;;;;12.85;7.40;;;;;;;;;;6260118;28;20090;-75
2021/03/26 00:26:38;;;;;;;9.95;7.72;;;;;;;;;;6258263;28;20786;-75
2021/03/26 00:29:39;;;;;;;12.00;8.52;;;;;;;;;;6262539;28;20128;-75
2021/03/26 00:32:40;;;;;;;11.20;8.50;;;;;;;;;;6261495;28;20119;-76
2021/03/26 00:35:41;;;;;;;16.83;8.65;;;;;;;;;;6268246;28;20552;-76
2021/03/26 00:38:42;;;;;;;12.50;7.72;;;;;;;;;;6262035;28;20120;-75
2021/03/26 00:41:44;;;;;;;13.48;8.13;;;;;;;;;;6263103;28;20132;-75
2021/03/26 00:44:45;;;;;;;14.15;8.48;;;;;;;;;;6261359;28;20045;-75
2021/03/26 00:47:46;;;;;;;13.48;8.13;;;;;;;;;;6266480;28;20665;-74
2021/03/26 00:50:50;;;;;;;16.42;8.35;;;;;;;;;;6263911;28;20080;-74
2021/03/26 00:53:51;;;;;;;14.55;8.52;;;;;;;;;;6262422;28;20041;-74
2021/03/26 00:56:53;;;;;;;18.02;9.02;;;;;;;;;;6257028;28;20132;-76
2021/03/26 00:59:54;;;;;;;17.65;8.75;;;;;;;;;;6262876;28;20073;-75
2021/03/26 01:02:55;;;;;;;13.57;8.52;;;;;;;;;;6259424;28;20075;-75
2021/03/26 01:06:00;;;;;;;15.23;9.63;;;;;;;;;;6258637;28;20060;-74
2021/03/26 01:09:01;;;;;;;13.65;8.25;;;;;;;;;;6260833;28;20124;-75
2021/03/26 01:12:03;;;;;;;12.43;8.55;;;;;;;;;;6262942;28;20049;-75
2021/03/26 01:15:10;;;;;;;16.63;9.18;;;;;;;;;;6261828;28;20602;-75
2021/03/26 01:18:22;;;;;;;15.43;8.68;;;;;;;;;;6262167;28;20099;-75
2021/03/26 01:21:26;;;;;;;14.70;8.27;;;;;;;;;;6258567;28;20079;-75
2021/03/26 01:24:27;;;;;;;;;;;;;;;;;;6262915;28;20084;-76
2021/03/26 01:27:29;;;;;;;14.40;8.63;;;;;;;;;;6257551;28;20283;-76
2021/03/26 01:30:31;;;;;;;16.50;8.55;;;;;;;;;;6257133;28;20096;-75
2021/03/26 01:33:32;;;;;;;17.80;9.05;;;;;;;;;;6259372;28;20056;-75
2021/03/26 01:36:34;;;;;;;12.70;8.63;;;;;;;;;;6257613;28;20459;-75
2021/03/26 01:39:35;;;;;;;12.35;8.25;;;;;;;;;;6265388;28;20080;-75
2021/03/26 01:42:38;;;;;;;17.10;8.63;;;;;;;;;;6269186;28;20135;-75
2021/03/26 01:45:39;;;;;;;16.67;8.32;;;;;;;;;;6257305;28;20132;-75
2021/03/26 01:48:42;;;;;;;17.42;9.00;;;;;;;;;;6260014;28;20069;-75
2021/03/26 01:51:45;;;;;;;16.02;8.85;;;;;;;;;;6260256;28;20662;-75
2021/03/26 01:54:47;;;;;;;14.70;8.80;;;;;;;;;;6262185;28;20068;-75
2021/03/26 01:57:49;;;;;;;15.18;8.18;;;;;;;;;;6265083;28;20499;-75
2021/03/26 02:00:56;;;;;;;12.93;8.15;;;;;;;;;;6258497;28;20104;-75
2021/03/26 02:04:00;;;;;;;13.63;7.55;;;;;;;;;;6552929;23;20676;-75
2021/03/26 02:07:01;;;;;;;;;;;;;;;;;;6286352;28;20159;-76
2021/03/26 02:10:03;;;;;;;16.80;7.93;;;;;;;;;;6297100;28;19963;-75
2021/03/26 02:13:07;;;;;;;13.40;8.20;;;;;;;;;;6289844;28;20131;-75
2021/03/26 02:16:09;;;;;;;16.20;8.60;;;;;;;;;;6291635;28;20082;-75
2021/03/26 02:19:15;;;;;;;16.00;8.10;;;;;;;;;;6287859;28;20047;-76
2021/03/26 02:22:17;;;;;;;15.07;9.35;;;;;;;;;;6289656;28;20477;-75
2021/03/26 02:25:23;;;;;;;14.35;7.93;;;;;;;;;;6290970;28;20094;-76
2021/03/26 02:28:25;;;;;;;14.63;8.15;;;;;;;;;;6286914;28;20351;-75
2021/03/26 02:31:27;;;;;;;18.60;8.73;;;;;;;;;;6293170;28;20743;-76
2021/03/26 02:34:29;;;;;;;13.40;8.65;;;;;;;;;;6286343;28;20114;-75
2021/03/26 02:37:30;;;;;;;15.27;9.02;;;;;;;;;;6291862;28;20084;-75
2021/03/26 02:40:38;;;;;;;15.15;8.50;;;;;;;;;;6290954;28;20118;-75
2021/03/26 02:43:42;;;;;;;14.00;8.73;;;;;;;;;;6289798;28;20122;-75
2021/03/26 02:46:51;;;;;;;13.60;8.95;;;;;;;;;;6286136;28;20048;-75
2021/03/26 02:49:57;;;;;;;15.25;8.98;;;;;;;;;;6286686;28;20052;-75
2021/03/26 02:53:01;;;;;;;14.80;9.20;;;;;;;;;;6281043;28;20553;-75
2021/03/26 02:56:05;;;;;;;19.27;10.25;;;;;;;;;;6287040;28;20121;-76
2021/03/26 02:59:10;;;;;;;14.60;9.00;;;;;;;;;;6282200;28;20048;-75
2021/03/26 03:02:12;;;;;;;16.90;9.73;;;;;;;;;;6287326;28;20061;-75
2021/03/26 03:05:16;;;;;;;15.85;10.02;;;;;;;;;;6281323;28;20072;-75
2021/03/26 03:08:19;;;;;;;;;;;;;;;;;;6287324;28;20052;-75
2021/03/26 03:11:24;;;;;;;12.82;9.18;;;;;;;;;;6287983;28;20029;-75
2021/03/26 03:14:28;;;;;;;16.67;9.35;;;;;;;;;;6278096;28;20135;-77
2021/03/26 03:17:35;;;;;;;18.05;10.10;;;;;;;;;;6283408;28;20076;-75
2021/03/26 03:20:39;;;;;;;15.32;10.15;;;;;;;;;;6290552;28;20456;-74
2021/03/26 03:23:46;;;;;;;16.63;9.85;;;;;;;;;;6290816;28;20403;-75
2021/03/26 03:26:54;;;;;;;15.52;10.20;;;;;;;;;;6285724;28;20114;-75
2021/03/26 03:29:59;;;;;;;14.85;10.20;;;;;;;;;;6289775;28;20068;-75
2021/03/26 03:33:05;;;;;;;16.50;9.85;;;;;;;;;;6293264;28;20067;-74
2021/03/26 03:36:11;;;;;;;17.15;10.30;;;;;;;;;;6293349;28;20399;-75
2021/03/26 03:39:15;;;;;;;21.20;10.68;;;;;;;;;;6288566;28;20063;-76
2021/03/26 03:42:21;;;;;;;18.35;11.57;;;;;;;;;;6286939;28;20526;-75
2021/03/26 03:45:25;;;;;;;18.38;11.73;;;;;;;;;;6291424;28;20104;-77
2021/03/26 03:48:28;;;;;;;;;;;;;;;;;;6285208;28;20122;-75
2021/03/26 03:51:34;;;;;;;23.75;12.23;;;;;;;;;;6289534;28;19967;-75
2021/03/26 03:54:37;;;;;;;19.73;12.30;;;;;;;;;;6286942;28;20049;-75
2021/03/26 03:57:43;;;;;;;17.23;12.15;;;;;;;;;;6289041;28;20231;-75
2021/03/26 04:00:48;;;;;;;21.65;12.70;;;;;;;;;;6280965;28;20063;-72
2021/03/26 04:03:51;;;;;;;20.13;12.70;;;;;;;;;;6286686;28;20056;-74
2021/03/26 04:06:57;;;;;;;18.27;12.03;;;;;;;;;;6288401;28;20072;-72
2021/03/26 04:10:03;;;;;;;19.65;12.75;;;;;;;;;;6286299;28;20167;-74
2021/03/26 04:13:09;;;;;;;21.77;12.57;;;;;;;;;;6283558;28;20076;-73
2021/03/26 04:16:14;;;;;;;20.75;12.10;;;;;;;;;;6283516;28;20065;-74
2021/03/26 04:19:19;;;;;;;20.90;13.10;;;;;;;;;;6288859;28;20040;-77
2021/03/26 04:22:23;;;;;;;24.70;13.32;;;;;;;;;;6287513;28;20538;-75
2021/03/26 04:25:26;;;;;;;18.00;12.75;;;;;;;;;;6290750;28;20134;-77
2021/03/26 04:28:31;;;;;;;21.15;12.50;;;;;;;;;;6288002;28;20052;-75
2021/03/26 04:31:35;;;;;;;17.73;11.82;;;;;;;;;;6280065;28;20095;-75
2021/03/26 04:34:38;;;;;;;17.80;12.43;;;;;;;;;;6290431;28;20506;-74
2021/03/26 04:37:42;;;;;;;21.45;13.15;;;;;;;;;;6283069;28;20087;-72
2021/03/26 04:40:47;;;;;;;17.92;11.75;;;;;;;;;;6291100;28;20056;-74
2021/03/26 04:43:52;;;;;;;21.17;12.57;;;;;;;;;;6289936;28;20499;-75
2021/03/26 04:46:57;;;;;;;19.05;12.68;;;;;;;;;;6285350;28;20127;-75
2021/03/26 04:50:02;;;;;;;24.45;13.73;;;;;;;;;;6289616;28;20135;-75
2021/03/26 04:53:09;;;;;;;19.88;12.90;;;;;;;;;;6288463;28;20106;-75
2021/03/26 04:56:15;;;;;;;22.95;12.88;;;;;;;;;;6291311;28;20131;-75
2021/03/26 04:59:21;;;;;;;19.60;14.50;;;;;;;;;;6283687;28;20131;-75
2021/03/26 05:02:23;;;;;;;21.52;13.90;;;;;;;;;;6284745;28;20131;-77
2021/03/26 05:05:24;;;;;;;21.10;13.55;;;;;;;;;;6288378;28;20095;-79
2021/03/26 05:08:26;;;;;;;24.48;14.48;;;;;;;;;;6289968;28;20077;-76
2021/03/26 05:11:29;;;;;;;21.50;14.13;;;;;;;;;;6292699;28;20118;-76
2021/03/26 05:14:35;;;;;;;25.13;15.77;;;;;;;;;;6280198;28;20068;-75
2021/03/26 05:17:41;;;;;;;21.75;15.35;;;;;;;;;;6294053;28;20080;-76
2021/03/26 05:20:45;;;;;;;23.38;15.57;;;;;;;;;;6273549;28;20076;-78
2021/03/26 05:23:48;;;;;;;24.83;15.73;;;;;;;;;;6282787;28;20051;-76
2021/03/26 05:26:49;;;;;;;24.52;16.60;;;;;;;;;;6281678;28;20069;-76
2021/03/26 05:29:51;;;;;;;24.83;15.38;;;;;;;;;;6283931;28;20122;-75
2021/03/26 05:32:56;;;;;;;23.70;16.02;;;;;;;;;;6284306;28;20098;-75
2021/03/26 05:36:01;;;;;;;25.70;15.98;;;;;;;;;;6282334;28;20487;-76
2021/03/26 05:39:05;;;;;;;27.50;16.85;;;;;;;;;;6288729;28;20072;-76
2021/03/26 05:42:21;;;;;;;25.58;17.80;;;;;;;;;;6286845;28;20136;-76
2021/03/26 05:45:30;;;;;;;28.15;17.63;;;;;;;;;;6284697;28;20076;-77
2021/03/26 05:48:39;;;;;;;26.33;17.45;;;;;;;;;;6286985;28;20076;-76
2021/03/26 05:51:53;;;;;;;28.65;17.65;;;;;;;;;;6283674;28;20166;-76
2021/03/26 05:55:06;;;;;;;31.85;17.85;;;;;;;;;;6284756;28;20767;-76
2021/03/26 05:58:24;;;;;;;24.58;17.63;;;;;;;;;;6283926;28;20076;-75
2021/03/26 06:01:37;;;;;;;31.30;18.45;;;;;;;;;;6288271;28;20049;-77
2021/03/26 06:05:08;;;;;;;27.67;17.65;;;;;;;;;;6285149;28;20068;-79
2021/03/26 06:08:30;;;;;;;28.25;17.88;;;;;;;;;;6276923;28;20542;-76
2021/03/26 06:11:40;;;;;;;44.53;20.05;;;;;;;;;;6288469;28;20136;-75
2021/03/26 06:14:54;;;;;;;32.13;18.48;;;;;;;;;;6287154;28;20036;-76
2021/03/26 06:18:10;;;;;;;28.90;20.30;;;;;;;;;;6284852;28;20037;-77
2021/03/26 06:21:23;;;;;;;35.05;20.80;;;;;;;;;;6286653;28;20513;-73
2021/03/26 06:24:54;;;;;;;36.30;23.98;;;;;;;;;;6291139;28;20437;-76
2021/03/26 06:28:03;;;;;;;42.63;25.88;;;;;;;;;;6284413;28;20127;-75
2021/03/26 06:31:32;;;;;;;39.00;24.05;;;;;;;;;;6295679;28;20391;-75
2021/03/26 06:35:07;;;;;;;51.28;28.92;;;;;;;;;;6290407;28;20570;-75
2021/03/26 06:38:24;;;;;;;42.70;25.08;;;;;;;;;;6289510;28;20136;-74
2021/03/26 06:41:36;;;;;;;36.95;25.33;;;;;;;;;;6288712;28;20049;-76
2021/03/26 06:44:52;;;;;;;40.58;24.77;;;;;;;;;;6293047;28;20554;-77
2021/03/26 06:48:06;;;;;;;36.22;24.58;;;;;;;;;;6288682;28;20089;-74
2021/03/26 06:51:35;;;;;;;35.47;24.07;;;;;;;;;;6290241;28;20626;-75
2021/03/26 06:55:14;;;;;;;39.88;25.25;;;;;;;;;;6291832;28;20470;-75
2021/03/26 06:58:31;;;;;;;37.45;23.48;;;;;;;;;;6283576;28;20053;-76
2021/03/26 07:01:45;;;;;;;35.05;24.13;;;;;;;;;;6285520;28;20045;-76
2021/03/26 07:05:02;;;;;;;36.33;24.42;;;;;;;;;;6290202;28;20040;-78
2021/03/26 07:08:31;;;;;;;33.60;22.77;;;;;;;;;;6292907;28;20063;-77
2021/03/26 07:11:58;;;;;;;35.85;22.95;;;;;;;;;;6257745;28;20070;-76
2021/03/26 07:15:03;;;;;;;40.03;26.02;;;;;;;;;;6257885;28;20161;-74
2021/03/26 07:18:51;;;;;;;44.25;27.33;;;;;;;;;;6289796;28;20102;-74
2021/03/26 07:22:08;;;;;;;40.05;25.60;;;;;;;;;;6248595;28;20060;-78
2021/03/26 07:25:17;;;;;;;44.33;28.17;;;;;;;;;;6290209;28;20135;-74
2021/03/26 07:28:28;;;;;;;45.90;29.00;;;;;;;;;;6285643;28;20079;-74
2021/03/26 07:31:36;;;;;;;42.75;28.75;;;;;;;;;;6291804;28;20037;-76
2021/03/26 07:34:43;;;;;;;43.13;28.92;;;;;;;;;;6289909;28;20530;-73
2021/03/26 07:37:51;;;;;;;48.65;29.55;;;;;;;;;;6291318;28;20123;-69
2021/03/26 07:41:00;;;;;;;46.70;30.15;;;;;;;;;;6292886;28;20127;-70
2021/03/26 07:44:15;;;;;;;48.13;29.63;;;;;;;;;;6297307;28;20493;-73
2021/03/26 07:47:31;;;;;;;;;;;;;;;;;;6294041;28;20086;-70
2021/03/26 07:50:42;;;;;;;53.05;31.27;;;;;;;;;;6295478;28;19928;-73
2021/03/26 07:53:54;;;;;;;49.60;30.75;;;;;;;;;;6295867;28;20099;-73
2021/03/26 07:57:39;;;;;;;47.03;31.75;;;;;;;;;;6302285;28;20471;-75
2021/03/26 08:00:52;;;;;;;49.00;31.37;;;;;;;;;;6209864;28;20489;-72
2021/03/26 08:04:14;;;;;;;54.38;31.92;;;;;;;;;;6214639;28;20104;-74
2021/03/26 08:07:57;;;;;;;47.30;30.67;;;;;;;;;;6281451;28;20067;-75
2021/03/26 08:11:07;;;;;;;51.15;31.80;;;;;;;;;;6255483;28;20084;-74
2021/03/26 08:14:32;;;;;;;51.85;33.30;;;;;;;;;;6285359;28;21449;-74
2021/03/26 08:17:43;;;;;;;46.90;31.48;;;;;;;;;;6282874;28;20045;-75
2021/03/26 08:20:56;;;;;;;50.05;30.45;;;;;;;;;;6288277;28;20060;-74
2021/03/26 08:24:24;;;;;;;47.40;30.13;;;;;;;;;;6286188;28;20044;-73
2021/03/26 08:27:33;;;;;;;41.35;28.08;;;;;;;;;;6278404;28;20072;-71
2021/03/26 08:30:44;;;;;;;44.00;29.58;;;;;;;;;;6292412;28;20048;-74
2021/03/26 08:34:07;;;;;;;43.83;30.33;;;;;;;;;;6294808;28;20123;-74
2021/03/26 08:37:14;;;;;;;48.50;31.65;;;;;;;;;;6273631;28;20064;-75
2021/03/26 08:40:18;;;;;;;44.10;29.83;;;;;;;;;;6282471;28;20131;-75
2021/03/26 08:43:20;;;;;;;41.30;28.95;;;;;;;;;;6285364;28;20048;-75
2021/03/26 08:46:25;;;;;;;39.88;27.92;;;;;;;;;;6280611;28;20136;-77
2021/03/26 08:49:37;;;;;;;37.60;27.45;;;;;;;;;;6286663;28;20133;-75
2021/03/26 08:52:48;;;;;;;41.05;27.88;;;;;;;;;;6281841;28;20831;-73
2021/03/26 08:56:02;;;;;;;41.20;28.92;;;;;;;;;;6285522;28;20052;-74
2021/03/26 08:59:15;;;;;;;39.10;29.30;;;;;;;;;;6281648;28;20552;-77
2021/03/26 09:02:46;;;;;;;42.38;28.48;;;;;;;;;;6286027;28;20167;-74
2021/03/26 09:06:04;;;;;;;38.00;28.42;;;;;;;;;;6277196;28;20048;-74
2021/03/26 09:09:19;;;;;;;37.33;26.00;;;;;;;;;;6287959;28;20503;-74
2021/03/26 09:12:32;;;;;;;38.80;27.27;;;;;;;;;;6288252;28;20059;-74
2021/03/26 09:15:47;;;;;;;38.17;27.90;;;;;;;;;;6292097;28;20494;-75
2021/03/26 09:18:59;;;;;;;37.95;27.13;;;;;;;;;;6292298;28;20060;-75
2021/03/26 09:22:10;;;;;;;36.97;26.73;;;;;;;;;;6288405;28;20052;-75
2021/03/26 09:25:40;;;;;;;39.30;28.17;;;;;;;;;;6275507;28;20151;-76
2021/03/26 09:28:44;;;;;;;40.42;27.17;;;;;;;;;;6283304;28;20079;-76
2021/03/26 09:31:47;;;;;;;35.95;26.17;;;;;;;;;;6282110;28;20167;-75
2021/03/26 09:35:07;;;;;;;37.47;27.23;;;;;;;;;;6287058;28;20591;-75
2021/03/26 09:38:23;;;;;;;34.00;25.98;;;;;;;;;;6282590;28;20084;-76
2021/03/26 09:41:31;;;;;;;34.53;26.55;;;;;;;;;;6269662;28;20068;-78
2021/03/26 09:44:36;;;;;;;31.48;24.63;;;;;;;;;;6279246;28;20101;-73
2021/03/26 09:47:41;;;;;;;34.38;25.05;;;;;;;;;;6286531;28;20084;-72
2021/03/26 09:50:46;;;;;;;34.15;23.88;;;;;;;;;;6291390;28;20068;-71
2021/03/26 09:53:48;;;;;;;29.85;23.13;;;;;;;;;;6290137;28;20147;-75
2021/03/26 09:57:02;;;;;;;32.80;23.20;;;;;;;;;;6278102;28;20048;-73
2021/03/26 10:00:23;;;;;;;29.95;22.15;;;;;;;;;;6280574;28;20067;-73
2021/03/26 10:03:44;;;;;;;27.45;22.33;;;;;;;;;;6266552;28;20202;-73
2021/03/26 10:06:58;;;;;;;34.42;22.33;;;;;;;;;;6277252;28;20099;-73
2021/03/26 10:13:21;;;;;;;28.45;20.92;;;;;;;;;;6280845;28;20053;-73
2021/03/26 10:16:28;;;;;;;24.98;20.38;;;;;;;;;;6277459;28;20052;-73
2021/03/26 10:19:33;;;;;;;25.73;21.52;;;;;;;;;;6273315;28;20048;-73
2021/03/26 10:22:46;;;;;;;32.00;22.80;;;;;;;;;;6279731;28;20140;-74
2021/03/26 10:25:49;;;;;;;29.75;22.73;;;;;;;;;;6280413;28;20127;-75
2021/03/26 10:28:59;;;;;;;28.35;22.23;;;;;;;;;;6279772;28;20087;-74
2021/03/26 10:32:08;;;;;;;25.75;21.90;;;;;;;;;;6289916;28;20544;-74
2021/03/26 10:35:12;;;;;;;29.45;22.90;;;;;;;;;;6285791;28;20071;-74
2021/03/26 10:38:16;;;;;;;32.42;22.73;;;;;;;;;;6285677;28;20450;-74
2021/03/26 10:41:25;;;;;;;29.73;23.80;;;;;;;;;;6284102;28;20059;-74
2021/03/26 10:44:36;;;;;;;33.10;23.83;;;;;;;;;;6283919;28;20562;-74
2021/03/26 10:47:46;;;;;;;30.77;23.35;;;;;;;;;;6279520;28;20246;-74
2021/03/26 10:51:33;;;;;;;29.02;22.90;;;;;;;;;;6279614;28;20098;-74
2021/03/26 10:54:43;;;;;;;28.20;22.02;;;;;;;;;;6245621;28;20088;-73
2021/03/26 10:57:46;;;;;;;25.83;21.67;;;;;;;;;;6275254;28;20132;-73
2021/03/26 11:00:57;;;;;;;25.42;19.73;;;;;;;;;;6273610;28;20044;-74
2021/03/26 11:04:07;;;;;;;22.73;20.38;;;;;;;;;;6272143;28;20159;-74
2021/03/26 11:07:12;;;;;;;26.58;20.05;;;;;;;;;;6275276;28;20190;-74
2021/03/26 11:10:19;;;;;;;23.50;19.65;;;;;;;;;;6281884;28;20528;-74
2021/03/26 11:13:26;;;;;;;26.63;20.88;;;;;;;;;;6276941;28;20639;-73
2021/03/26 11:16:33;;;;;;;25.50;21.27;;;;;;;;;;6282986;28;20083;-75
2021/03/26 11:19:38;;;;;;;28.13;20.98;;;;;;;;;;6278257;28;20143;-74
2021/03/26 11:22:40;;;;;;;26.13;19.58;;;;;;;;;;6275967;28;20128;-74
2021/03/26 11:25:44;;;;;;;26.70;20.35;;;;;;;;;;6276563;28;20529;-73
2021/03/26 11:28:48;;;;;;;23.27;19.13;;;;;;;;;;6280135;28;20053;-74
2021/03/26 11:31:53;;;;;;;26.75;19.27;;;;;;;;;;6285236;28;20168;-74
2021/03/26 11:35:00;;;;;;;25.70;19.80;;;;;;;;;;6289231;28;20052;-74
2021/03/26 11:38:10;;;;;;;23.02;17.65;;;;;;;;;;6283876;28;20053;-74
2021/03/26 11:41:15;;;;;;;24.00;18.33;;;;;;;;;;6286500;28;20535;-74
2021/03/26 11:44:18;;;;;;;33.63;20.70;;;;;;;;;;6287283;28;20048;-74
2021/03/26 11:47:32;;;;;;;23.63;20.20;;;;;;;;;;6288399;28;20072;-74
2021/03/26 11:50:35;;;;;;;26.10;20.63;;;;;;;;;;6288101;28;20435;-74
2021/03/26 11:53:44;;;;;;;23.15;19.65;;;;;;;;;;6291762;28;20060;-73
2021/03/26 11:56:50;;;;;;;25.10;20.15;;;;;;;;;;6282096;28;20045;-73
2021/03/26 12:00:13;;;;;;;27.30;20.23;;;;;;;;;;6284213;28;20135;-73
2021/03/26 12:03:17;;;;;;;24.50;21.15;;;;;;;;;;6283070;28;20076;-73
2021/03/26 12:06:24;;;;;;;28.00;20.33;;;;;;;;;;6282396;28;20136;-73
2021/03/26 12:09:33;;;;;;;29.15;20.00;;;;;;;;;;6278115;28;20083;-72
2021/03/26 12:12:37;;;;;;;27.13;20.27;;;;;;;;;;6286319;28;20040;-74
2021/03/26 12:15:42;;;;;;;22.85;20.38;;;;;;;;;;6288146;28;20534;-74
2021/03/26 12:18:48;;;;;;;29.92;20.45;;;;;;;;;;6280922;28;20139;-74
2021/03/26 12:21:54;;;;;;;24.25;18.63;;;;;;;;;;6278337;28;20143;-73
2021/03/26 12:24:57;;;;;;;24.17;17.00;;;;;;;;;;6290719;28;20087;-69
2021/03/26 12:28:10;;;;;;;22.65;18.85;;;;;;;;;;6288091;28;20055;-76
2021/03/26 12:31:15;;;;;;;25.65;19.33;;;;;;;;;;6291131;28;20121;-75
2021/03/26 12:34:28;;;;;;;22.45;18.83;;;;;;;;;;6285163;28;20384;-76
2021/03/26 12:37:36;;;;;;;27.95;21.10;;;;;;;;;;6281360;28;20150;-73
2021/03/26 12:41:14;;;;;;;23.90;19.92;;;;;;;;;;6287026;28;20117;-75
2021/03/26 12:44:24;;;;;;;24.27;19.92;;;;;;;;;;6267801;28;20084;-78
2021/03/26 12:47:31;;;;;;;30.23;21.17;;;;;;;;;;6289791;28;20122;-79
2021/03/26 12:50:35;;;;;;;32.47;21.90;;;;;;;;;;6290832;28;20441;-76
2021/03/26 12:53:40;;;;;;;22.40;19.92;;;;;;;;;;6277739;28;20080;-76
2021/03/26 12:56:49;;;;;;;29.85;21.20;;;;;;;;;;6283857;28;20575;-76
2021/03/26 12:59:55;;;;;;;26.95;20.63;;;;;;;;;;6280263;28;20049;-70
2021/03/26 13:02:59;;;;;;;30.25;21.35;;;;;;;;;;6285818;28;20041;-78
2021/03/26 13:06:09;;;;;;;27.83;22.00;;;;;;;;;;6287501;28;20071;-75
2021/03/26 13:09:19;;;;;;;36.63;22.60;;;;;;;;;;6278903;28;20182;-75
2021/03/26 13:12:25;;;;;;;30.05;23.42;;;;;;;;;;6286480;28;20440;-76
2021/03/26 13:15:29;;;;;;;33.55;24.77;;;;;;;;;;6287954;28;20072;-76
2021/03/26 13:18:30;;;;;;;29.00;24.05;;;;;;;;;;6281918;28;20056;-77
2021/03/26 13:21:51;;;;;;;35.35;28.35;;;;;;;;;;6285704;28;20514;-76
2021/03/26 13:24:57;;;;;;;30.73;25.85;;;;;;;;;;6285353;28;20104;-76
2021/03/26 13:28:12;;;;;;;38.67;26.98;;;;;;;;;;6284563;28;20087;-77
2021/03/26 13:31:16;;;;;;;31.02;25.42;;;;;;;;;;6279909;28;20084;-76
2021/03/26 13:34:20;;;;;;;30.08;22.85;;;;;;;;;;6285949;28;20048;-76
2021/03/26 13:37:24;;;;;;;28.20;24.88;;;;;;;;;;6287303;28;20438;-76
2021/03/26 13:40:26;;;;;;;33.25;25.40;;;;;;;;;;6295280;28;20118;-76
2021/03/26 13:43:30;;;;;;;35.85;28.60;;;;;;;;;;6289145;28;20175;-77
2021/03/26 13:46:33;;;;;;;33.53;26.75;;;;;;;;;;6291903;28;20040;-76
2021/03/26 13:49:34;;;;;;;37.37;26.33;;;;;;;;;;6293609;28;20170;-76
2021/03/26 13:52:39;;;;;;;34.85;25.77;;;;;;;;;;6289842;28;20045;-76
2021/03/26 13:55:42;;;;;;;34.50;24.45;;;;;;;;;;6283858;28;20056;-76
2021/03/26 13:58:48;;;;;;;32.05;25.40;;;;;;;;;;6279694;28;20052;-77
2021/03/26 14:01:53;;;;;;;32.75;25.50;;;;;;;;;;6284373;28;20411;-77
2021/03/26 14:05:07;;;;;;;33.83;23.98;;;;;;;;;;6284791;28;20082;-77
2021/03/26 14:08:16;;;;;;;32.83;25.55;;;;;;;;;;6287910;28;20045;-77
2021/03/26 14:11:24;;;;;;;33.45;26.38;;;;;;;;;;6282207;28;20065;-75
2021/03/26 14:14:30;;;;;;;32.58;25.80;;;;;;;;;;6285974;28;20049;-75
2021/03/26 14:17:34;;;;;;;31.60;25.05;;;;;;;;;;6282746;28;20398;-75
2021/03/26 14:20:39;;;;;;;37.90;25.08;;;;;;;;;;6288181;28;20135;-76
2021/03/26 14:23:40;;;;;;;35.70;26.00;;;;;;;;;;6291044;28;20129;-76
2021/03/26 14:26:49;;;;;;;33.55;26.85;;;;;;;;;;6286239;28;20574;-76
2021/03/26 14:29:58;;;;;;;34.63;26.42;;;;;;;;;;6285774;28;20052;-76
2021/03/26 14:33:33;;;;;;;36.30;27.45;;;;;;;;;;6287639;28;20793;-76
2021/03/26 14:36:36;;;;;;;67.50;27.38;;;;;;;;;;6283420;28;20045;-78
2021/03/26 14:39:38;;;;;;;35.78;25.02;;;;;;;;;;6285052;28;20112;-75
2021/03/26 14:42:43;;;;;;;32.80;26.23;;;;;;;;;;6286143;28;20100;-75
2021/03/26 14:45:46;;;;;;;30.50;25.33;;;;;;;;;;6287823;28;20059;-75
2021/03/26 14:48:51;;;;;;;29.75;23.60;;;;;;;;;;6279639;28;20143;-76
2021/03/26 14:51:54;;;;;;;29.92;24.73;;;;;;;;;;6284336;28;20064;-76
2021/03/26 14:55:04;;;;;;;33.10;24.73;;;;;;;;;;6289092;28;20064;-75
2021/03/26 14:58:12;;;;;;;31.88;23.30;;;;;;;;;;6287570;28;20529;-76
2021/03/26 15:01:16;;;;;;;31.77;23.77;;;;;;;;;;6280729;28;20060;-76
2021/03/26 15:04:21;;;;;;;29.63;22.17;;;;;;;;;;6286630;28;20076;-76
2021/03/26 15:07:24;;;;;;;35.35;24.17;;;;;;;;;;6283918;28;20123;-75
2021/03/26 15:10:32;;;;;;;30.38;20.55;;;;;;;;;;6284123;28;20055;-75
2021/03/26 15:13:39;;;;;;;27.90;20.38;;;;;;;;;;6284952;28;20127;-76
2021/03/26 15:16:43;;;;;;;34.55;21.23;;;;;;;;;;6284067;28;20064;-75
2021/03/26 15:19:47;;;;;;;24.58;20.45;;;;;;;;;;6284666;28;20148;-76
2021/03/26 15:23:00;;;;;;;33.50;20.08;;;;;;;;;;6290554;28;20076;-81
2021/03/26 15:26:06;;;;;;;25.55;18.02;;;;;;;;;;6287309;28;20080;-76
2021/03/26 15:29:09;;;;;;;21.48;16.00;;;;;;;;;;6283164;28;20124;-74
2021/03/26 15:32:17;;;;;;;28.80;16.33;;;;;;;;;;6292335;28;20495;-75
2021/03/26 15:35:22;;;;;;;19.95;14.50;;;;;;;;;;6288699;28;20098;-76
2021/03/26 15:38:26;;;;;;;22.38;14.25;;;;;;;;;;6285828;28;20044;-75
2021/03/26 15:41:30;;;;;;;31.70;14.43;;;;;;;;;;6277972;28;20105;-77
2021/03/26 15:44:34;;;;;;;20.67;15.38;;;;;;;;;;6289005;28;20132;-75
2021/03/26 15:47:38;;;;;;;26.05;14.40;;;;;;;;;;6289119;28;20064;-75
2021/03/26 15:50:48;;;;;;;20.63;13.88;;;;;;;;;;6286293;28;20535;-75
2021/03/26 15:54:18;;;;;;;18.63;12.90;;;;;;;;;;6284765;28;20057;-75
2021/03/26 15:57:48;;;;;;;24.55;14.68;;;;;;;;;;6281366;28;20152;-78
2021/03/26 16:01:19;;;;;;;22.77;14.23;;;;;;;;;;6279188;28;20095;-76
2021/03/26 16:04:59;;;;;;;19.80;13.77;;;;;;;;;;6273038;28;20570;-72
2021/03/26 16:08:25;;;;;;;19.17;13.93;;;;;;;;;;6268402;28;20672;-73
2021/03/26 16:11:40;;;;;;;25.30;14.05;;;;;;;;;;6283574;28;20143;-73
2021/03/26 16:14:48;;;;;;;32.38;16.45;;;;;;;;;;6278662;28;20048;-75
2021/03/26 16:18:01;;;;;;;20.33;13.90;;;;;;;;;;6280023;28;20141;-75
2021/03/26 16:21:16;;;;;;;20.02;14.38;;;;;;;;;;6281401;28;20055;-72
2021/03/26 16:24:32;;;;;;;44.50;15.60;;;;;;;;;;6275508;28;20502;-74
2021/03/26 16:28:02;;;;;;;22.92;12.75;;;;;;;;;;6279603;28;20060;-73
2021/03/26 16:31:21;;;;;;;18.20;12.13;;;;;;;;;;6285004;28;20103;-73
2021/03/26 16:34:33;;;;;;;17.88;11.63;;;;;;;;;;6282272;28;20213;-74
2021/03/26 16:37:41;;;;;;;21.42;12.30;;;;;;;;;;6278854;28;20060;-74
2021/03/26 16:41:25;;;;;;;19.95;10.63;;;;;;;;;;6288841;28;20068;-74
2021/03/26 16:44:51;;;;;;;25.02;11.13;;;;;;;;;;6289333;28;20076;-73
2021/03/26 16:48:13;;;;;;;22.08;10.95;;;;;;;;;;6282722;28;20403;-73
2021/03/26 16:51:33;;;;;;;18.13;9.70;;;;;;;;;;6288610;28;20053;-73
2021/03/26 16:54:36;;;;;;;16.30;8.38;;;;;;;;;;6281791;28;20123;-73
2021/03/26 16:58:02;;;;;;;16.10;7.95;;;;;;;;;;6290097;28;21755;-74
2021/03/26 17:01:25;;;;;;;19.42;8.25;;;;;;;;;;6283238;28;20052;-73
2021/03/26 17:04:39;;;;;;;21.70;8.50;;;;;;;;;;6281766;28;20049;-73
2021/03/26 17:07:58;;;;;;;;;;;;;;;;;;6289007;28;20087;-74
2021/03/26 17:11:40;;;;;;;11.48;7.30;;;;;;;;;;6274151;28;20645;-74
2021/03/26 17:14:51;;;;;;;29.92;7.78;;;;;;;;;;6269183;28;20083;-73
2021/03/26 17:18:06;;;;;;;17.63;7.10;;;;;;;;;;6285575;28;20269;-76
2021/03/26 17:21:22;;;;;;;27.08;8.30;;;;;;;;;;6283388;28;20147;-74
2021/03/26 17:24:46;;;;;;;20.88;7.20;;;;;;;;;;6288293;28;20493;-74
2021/03/26 17:28:35;;;;;;;23.58;7.40;;;;;;;;;;6278314;28;20171;-74
2021/03/26 17:32:06;;;;;;;17.80;7.60;;;;;;;;;;6282331;28;20447;-74
2021/03/26 17:35:24;;;;;;;14.30;8.60;;;;;;;;;;6296219;28;20059;-75
2021/03/26 17:38:40;;;;;;;12.38;5.75;;;;;;;;;;6280194;28;20052;-74
2021/03/26 17:41:56;;;;;;;13.52;5.38;;;;;;;;;;6287093;28;20053;-74
2021/03/26 17:45:14;;;;;;;11.07;5.03;;;;;;;;;;6285563;28;20147;-73
2021/03/26 17:48:20;;;;;;;11.05;4.55;;;;;;;;;;6285152;28;20082;-73
2021/03/26 17:51:33;;;;;;;21.80;5.70;;;;;;;;;;6283152;28;20148;-76
2021/03/26 17:54:50;;;;;;;15.70;5.15;;;;;;;;;;6279150;28;20052;-75
2021/03/26 17:58:04;;;;;;;15.68;5.47;;;;;;;;;;6284022;28;20511;-73
2021/03/26 18:01:10;;;;;;;11.05;4.70;;;;;;;;;;6274946;28;20118;-73
2021/03/26 18:04:28;;;;;;;14.70;5.75;;;;;;;;;;6286999;28;20056;-73
2021/03/26 18:07:40;;;;;;;8.27;5.75;;;;;;;;;;6277916;28;20198;-79
2021/03/26 18:10:44;;;;;;;11.43;5.97;;;;;;;;;;6284155;28;20103;-74
2021/03/26 18:13:56;;;;;;;10.55;5.60;;;;;;;;;;6279305;28;20486;-74
2021/03/26 18:17:07;;;;;;;10.40;5.18;;;;;;;;;;6282437;28;20044;-74
2021/03/26 18:20:18;;;;;;;12.35;5.63;;;;;;;;;;6283013;28;20049;-74
2021/03/26 18:23:24;;;;;;;12.07;6.05;;;;;;;;;;6283485;28;20048;-76
2021/03/26 18:26:40;;;;;;;10.27;6.00;;;;;;;;;;6282811;28;20492;-78
2021/03/26 18:30:19;;;;;;;8.82;5.63;;;;;;;;;;6283614;28;20132;-76
2021/03/26 18:33:52;;;;;;;10.82;6.28;;;;;;;;;;6289316;28;20076;-74
2021/03/26 18:36:58;;;;;;;14.55;6.72;;;;;;;;;;6256936;28;20076;-74